Map

Track Data

SID SEASON NUMBER BASIN SUBBASIN NAME ISO_TIME NATURE LAT LON WMO_WIND WMO_PRES WMO_AGENCY TRACK_TYPE DIST2LAND LANDFALL IFLAG USA_AGENCY USA_ATCF_ID USA_LAT USA_LON USA_RECORD USA_STATUS USA_WIND USA_PRES USA_SSHS USA_R34_NE USA_R34_SE USA_R34_SW USA_R34_NW USA_R50_NE USA_R50_SE USA_R50_SW USA_R50_NW USA_R64_NE USA_R64_SE USA_R64_SW USA_R64_NW USA_POCI USA_ROCI USA_RMW USA_EYE TOKYO_LAT TOKYO_LON TOKYO_GRADE TOKYO_WIND TOKYO_PRES TOKYO_R50_DIR TOKYO_R50_LONG TOKYO_R50_SHORT TOKYO_R30_DIR TOKYO_R30_LONG TOKYO_R30_SHORT TOKYO_LAND CMA_LAT CMA_LON CMA_CAT CMA_WIND CMA_PRES HKO_LAT HKO_LON HKO_CAT HKO_WIND HKO_PRES NEWDELHI_LAT NEWDELHI_LON NEWDELHI_GRADE NEWDELHI_WIND NEWDELHI_PRES NEWDELHI_CI NEWDELHI_DP NEWDELHI_POCI REUNION_LAT REUNION_LON REUNION_TYPE REUNION_WIND REUNION_PRES REUNION_TNUM REUNION_CI REUNION_RMW REUNION_R34_NE REUNION_R34_SE REUNION_R34_SW REUNION_R34_NW REUNION_R50_NE REUNION_R50_SE REUNION_R50_SW REUNION_R50_NW REUNION_R64_NE REUNION_R64_SE REUNION_R64_SW REUNION_R64_NW BOM_LAT BOM_LON BOM_TYPE BOM_WIND BOM_PRES BOM_TNUM BOM_CI BOM_RMW BOM_R34_NE BOM_R34_SE BOM_R34_SW BOM_R34_NW BOM_R50_NE BOM_R50_SE BOM_R50_SW BOM_R50_NW BOM_R64_NE BOM_R64_SE BOM_R64_SW BOM_R64_NW BOM_ROCI BOM_POCI BOM_EYE BOM_POS_METHOD BOM_PRES_METHOD NADI_LAT NADI_LON NADI_CAT NADI_WIND NADI_PRES WELLINGTON_LAT WELLINGTON_LON WELLINGTON_WIND WELLINGTON_PRES DS824_LAT DS824_LON DS824_STAGE DS824_WIND DS824_PRES TD9636_LAT TD9636_LON TD9636_STAGE TD9636_WIND TD9636_PRES TD9635_LAT TD9635_LON TD9635_WIND TD9635_PRES TD9635_ROCI NEUMANN_LAT NEUMANN_LON NEUMANN_CLASS NEUMANN_WIND NEUMANN_PRES MLC_LAT MLC_LON MLC_CLASS MLC_WIND MLC_PRES USA_GUST BOM_GUST BOM_GUST_PER REUNION_GUST REUNION_GUST_PER USA_SEAHGT USA_SEARAD_NE USA_SEARAD_SE USA_SEARAD_SW USA_SEARAD_NW STORM_SPEED STORM_DIR
1899195N18114 1899 18 WP MM NOT_NAMED 1899-07-13 16:00:00 NR 18.1000 114.400 main 395 376 __________O___ -1 18.1000 114.400 7 7 282
1899195N18114 1899 18 WP MM NOT_NAMED 1899-07-13 18:00:00 NR 18.1487 114.163 main 376 333 __________P___ -1 18.1487 114.163 7 7 283
1899195N18114 1899 18 WP MM NOT_NAMED 1899-07-13 21:00:00 NR 18.2282 113.810 main 333 300 __________P___ -1 18.2282 113.810 7 7 285
1899195N18114 1899 18 WP MM NOT_NAMED 1899-07-14 00:00:00 NR 18.3251 113.459 main 300 252 __________P___ -1 18.3251 113.459 7 7 289
1899195N18114 1899 18 WP MM NOT_NAMED 1899-07-14 03:00:00 NR 18.4502 113.114 main 252 243 __________P___ -1 18.4502 113.114 7 7 292
1899195N18114 1899 18 WP MM NOT_NAMED 1899-07-14 04:00:00 NR 18.5000 113.000 main 243 219 __________O___ -1 18.5000 113.000 3 7 297
1899195N18114 1899 18 WP MM NOT_NAMED 1899-07-14 06:00:00 NR 18.6130 112.775 main 219 172 __________P___ -1 18.6130 112.775 3 7 300
1899195N18114 1899 18 WP MM NOT_NAMED 1899-07-14 09:00:00 NR 18.8079 112.444 main 172 133 __________P___ -1 18.8079 112.444 3 7 303
1899195N18114 1899 18 WP MM NOT_NAMED 1899-07-14 12:00:00 NR 19.0193 112.120 main 133 95 __________P___ -1 19.0193 112.120 3 7 305
1899195N18114 1899 18 WP MM NOT_NAMED 1899-07-14 15:00:00 NR 19.2317 111.804 main 95 80 __________P___ -1 19.2317 111.804 3 7 305
1899195N18114 1899 18 WP MM NOT_NAMED 1899-07-14 16:00:00 NR 19.3000 111.700 main 80 56 __________O___ -1 19.3000 111.700 4 7 302
1899195N18114 1899 18 WP MM NOT_NAMED 1899-07-14 18:00:00 NR 19.4143 111.497 main 56 20 __________P___ -1 19.4143 111.497 4 7 301
1899195N18114 1899 18 WP MM NOT_NAMED 1899-07-14 21:00:00 NR 19.5794 111.198 main 20 0 __________P___ -1 19.5794 111.198 4 7 301
1899195N18114 1899 18 WP MM NOT_NAMED 1899-07-15 00:00:00 NR 19.7481 110.902 main 0 0 __________P___ -1 19.7481 110.902 4 7 302
1899195N18114 1899 18 WP MM NOT_NAMED 1899-07-15 03:00:00 NR 19.9327 110.602 main 0 0 __________P___ -1 19.9327 110.602 4 7 304
1899195N18114 1899 18 WP MM NOT_NAMED 1899-07-15 04:00:00 NR 20.0000 110.500 main 0 0 __________O___ -1 20.0000 110.500 4 7 308
1899195N18114 1899 18 WP MM NOT_NAMED 1899-07-15 06:00:00 NR 20.1572 110.297 main 0 0 __________P___ -1 20.1572 110.297 4 8 310
1899195N18114 1899 18 WP MM NOT_NAMED 1899-07-15 09:00:00 NR 20.4122 109.986 main 0 0 __________P___ -1 20.4122 109.986 4 8 311
1899195N18114 1899 18 WP MM NOT_NAMED 1899-07-15 12:00:00 NR 20.6737 109.662 main 10 10 __________P___ -1 20.6737 109.662 4 8 309
1899195N18114 1899 18 WP MM NOT_NAMED 1899-07-15 15:00:00 NR 20.9229 109.320 main 41 41 __________P___ -1 20.9229 109.320 4 8 307
1899195N18114 1899 18 WP MM NOT_NAMED 1899-07-15 16:00:00 NR 21.0000 109.200 main 44 35 __________O___ -1 21.0000 109.200 4 8 303
1899195N18114 1899 18 WP MM NOT_NAMED 1899-07-15 18:00:00 NR 21.1425 108.952 main 39 33 __________P___ -1 21.1425 108.952 4 8 299
1899195N18114 1899 18 WP MM NOT_NAMED 1899-07-15 21:00:00 NR 21.3310 108.562 main 35 0 __________P___ -1 21.3310 108.562 4 8 296
1899195N18114 1899 18 WP MM NOT_NAMED 1899-07-16 00:00:00 NR 21.4973 108.156 main 0 0 __________P___ -1 21.4973 108.156 4 8 293
1899195N18114 1899 18 WP MM NOT_NAMED 1899-07-16 03:00:00 NR 21.6503 107.740 main 0 0 __________P___ -1 21.6503 107.740 4 8 291
1899195N18114 1899 18 WP MM NOT_NAMED 1899-07-16 04:00:00 NR 21.7000 107.600 main 0 __________O___ -1 21.7000 107.600 4 8 290

Digital Typhoon Data and Search

About IBTrACS Database

This database is a web-friendly format of International Best Track Archive for Climate Stewardship (IBTrACS), a global best track data archive curated by NOAA dating back to 1842.

Updated: 2021-12-01